Time;durP1;ratioP1;P1;durP2;ratioP2;P2;SDS_P1;SDS_P2;PMS_P1;PMS_P2;Temp;Humidity;BMP_temperature;BMP_pressure;BME280_temperature;BME280_humidity;BME280_pressure;Samples;Min_cycle;Max_cycle;Signal;HPM_P1;HPM_P2
2022/08/01 00:01:57;;;;;;;2.17;1.97;;;;;;;21.12;100.00;96283.22;5031143;28;105530;-70
2022/08/01 00:04:25;;;;;;;2.20;2.10;;;;;;;21.06;100.00;96279.09;5031462;28;102552;-71
2022/08/01 00:06:54;;;;;;;2.40;2.20;;;;;;;21.07;100.00;96281.47;5030999;28;102017;-71
2022/08/01 00:09:20;;;;;;;1.90;1.80;;;;;;;21.09;100.00;96283.88;5032217;27;102558;-70
2022/08/01 00:11:48;;;;;;;2.30;2.20;;;;;;;21.16;100.00;96284.97;5030272;28;105805;-70
2022/08/01 00:14:15;;;;;;;3.40;2.10;;;;;;;21.15;100.00;96288.00;5030728;28;102147;-70
2022/08/01 00:16:42;;;;;;;2.47;2.20;;;;;;;21.21;100.00;96281.31;5032492;28;102880;-71
2022/08/01 00:19:09;;;;;;;2.13;1.93;;;;;;;21.23;100.00;96276.38;5035155;28;102737;-71
2022/08/01 00:21:37;;;;;;;3.43;2.10;;;;;;;21.25;100.00;96282.28;5030804;28;105353;-71
2022/08/01 00:24:06;;;;;;;3.87;2.40;;;;;;;21.14;100.00;96281.00;5031508;28;102577;-71
2022/08/01 00:26:33;;;;;;;2.37;2.27;;;;;;;21.11;100.00;96278.94;5031934;28;101951;-71
2022/08/01 00:29:00;;;;;;;2.20;2.00;;;;;;;21.05;100.00;96282.91;5032133;28;102451;-70
2022/08/01 00:31:27;;;;;;;3.20;2.30;;;;;;;21.08;100.00;96276.88;5030018;28;105428;-71
2022/08/01 00:33:54;;;;;;;2.53;1.80;;;;;;;21.12;100.00;96273.22;5031938;28;101923;-71
2022/08/01 00:36:21;;;;;;;2.20;2.10;;;;;;;21.12;100.00;96281.31;5031975;28;102309;-71
2022/08/01 00:38:48;;;;;;;2.00;1.90;;;;;;;21.06;100.00;96279.09;5031502;27;102563;-71
2022/08/01 00:41:17;;;;;;;1.97;1.77;;;;;;;20.98;100.00;96277.97;5033867;28;101965;-71
2022/08/01 00:43:45;;;;;;;3.97;2.10;;;;;;;21.00;100.00;96283.06;5030878;28;102574;-71
2022/08/01 00:46:12;;;;;;;2.53;2.10;;;;;;;20.98;100.00;96277.19;5030545;28;101966;-71
2022/08/01 00:48:39;;;;;;;2.50;2.00;;;;;;;20.95;100.00;96280.53;5031814;28;102983;-71
2022/08/01 00:51:06;;;;;;;3.17;2.30;;;;;;;20.95;100.00;96273.22;5031109;28;102561;-71
2022/08/01 00:53:34;;;;;;;2.33;2.13;;;;;;;20.97;100.00;96281.78;5029954;28;101984;-71
2022/08/01 00:56:02;;;;;;;2.47;2.00;;;;;;;21.00;100.00;96283.88;5030496;28;104908;-70
2022/08/01 00:58:32;;;;;;;2.20;2.10;;;;;;;21.02;100.00;96281.63;5029615;28;106667;-71
2022/08/01 01:00:59;;;;;;;2.20;2.00;;;;;;;21.06;100.00;96279.91;5031278;28;101955;-70
2022/08/01 01:03:27;;;;;;;2.23;1.90;;;;;;;21.01;100.00;96281.94;5032900;28;104369;-71
2022/08/01 01:06:10;;;;;;;2.30;1.93;;;;;;;21.00;100.00;96288.47;5031583;28;101677;-71
2022/08/01 01:08:44;;;;;;;2.43;2.10;;;;;;;20.98;100.00;96288.00;5029998;28;106483;-71
2022/08/01 01:11:17;;;;;;;4.07;2.20;;;;;;;20.97;100.00;96286.41;5029212;28;105865;-71
2022/08/01 01:13:50;;;;;;;5.63;2.07;;;;;;;20.99;100.00;96289.59;5031264;27;101718;-71
2022/08/01 01:16:20;;;;;;;2.50;2.03;;;;;;;20.95;100.00;96284.03;5029970;28;105691;-71
2022/08/01 01:18:50;;;;;;;3.37;2.00;;;;;;;20.96;100.00;96285.63;5029410;28;105421;-71
2022/08/01 01:21:57;;;;;;;2.37;2.00;;;;;;;20.93;100.00;96288.16;5029470;28;101966;-71
2022/08/01 01:24:36;;;;;;;2.37;2.17;;;;;;;20.92;100.00;96289.28;5009822;27;102649;-71
2022/08/01 01:27:11;;;;;;;2.43;2.20;;;;;;;20.87;100.00;96292.88;5033821;28;102869;-71
2022/08/01 01:29:45;;;;;;;2.17;2.07;;;;;;;20.86;100.00;96301.31;5031234;28;102475;-71
2022/08/01 01:32:18;;;;;;;2.43;2.23;;;;;;;20.87;100.00;96300.22;5030550;28;102925;-70
2022/08/01 01:34:49;;;;;;;2.27;2.10;;;;;;;20.82;100.00;96297.66;5029667;28;101809;-71
2022/08/01 01:37:20;;;;;;;2.80;2.40;;;;;;;20.81;100.00;96298.78;5029682;28;105472;-71
2022/08/01 01:39:49;;;;;;;2.33;2.10;;;;;;;20.84;100.00;96300.84;5036602;27;105694;-71
2022/08/01 01:42:18;;;;;;;3.07;2.30;;;;;;;20.83;100.00;96301.97;5050697;27;101835;-71
2022/08/01 01:44:49;;;;;;;2.37;2.10;;;;;;;20.82;100.00;96301.16;5051328;27;102652;-71
2022/08/01 01:47:17;;;;;;;2.23;2.10;;;;;;;20.82;100.00;96305.78;5053839;27;103836;-71
2022/08/01 01:49:47;;;;;;;2.47;2.27;;;;;;;20.84;100.00;96298.94;5051196;27;102951;-71
2022/08/01 01:52:17;;;;;;;2.20;2.10;;;;;;;20.82;100.00;96301.16;5049183;27;106430;-71
2022/08/01 01:54:50;;;;;;;2.83;2.40;;;;;;;20.80;100.00;96302.56;5051175;27;101842;-70
2022/08/01 01:57:19;;;;;;;2.20;2.00;;;;;;;20.78;100.00;96299.41;5049490;27;105154;-71
2022/08/01 01:59:51;;;;;;;2.73;2.03;;;;;;;20.79;100.00;96301.00;5049075;27;105707;-71
2022/08/01 02:02:19;;;;;;;2.20;2.00;;;;;;;20.85;100.00;96310.53;5049602;27;102339;-71
2022/08/01 02:04:48;;;;;;;2.40;2.30;;;;;;;20.84;100.00;96308.94;5049405;27;105425;-71
2022/08/01 02:07:20;;;;;;;2.77;2.50;;;;;;;20.79;100.00;96307.22;5048791;27;106364;-71
2022/08/01 02:09:49;;;;;;;2.30;2.10;;;;;;;20.70;100.00;96314.50;5052882;27;101958;-71
2022/08/01 02:12:19;;;;;;;2.53;2.30;;;;;;;20.67;100.00;96309.75;5048480;27;105349;-71
2022/08/01 02:14:49;;;;;;;2.27;2.17;;;;;;;20.65;100.00;96316.56;5049401;27;102030;-71
2022/08/01 02:17:18;;;;;;;3.23;2.10;;;;;;;20.62;100.00;96318.00;5050873;27;102367;-70
2022/08/01 02:19:46;;;;;;;2.00;1.90;;;;;;;20.65;100.00;96321.97;5050014;27;102690;-71
2022/08/01 02:22:21;;;;;;;4.50;2.10;;;;;;;20.68;100.00;96327.53;5049138;27;102074;-71
2022/08/01 02:24:53;;;;;;;2.90;2.27;;;;;;;20.69;100.00;96322.91;5049163;27;105194;-71
2022/08/01 02:27:26;;;;;;;3.07;2.33;;;;;;;20.65;100.00;96321.97;5048760;27;104526;-71
2022/08/01 02:29:59;;;;;;;2.97;2.20;;;;;;;20.61;100.00;96326.41;5049439;27;101842;-71
2022/08/01 02:32:31;;;;;;;2.20;2.10;;;;;;;20.50;100.00;96323.19;5052603;27;106548;-71
2022/08/01 02:35:02;;;;;;;3.83;2.30;;;;;;;20.52;100.00;96325.59;5052699;27;101888;-70
2022/08/01 02:37:34;;;;;;;2.60;2.40;;;;;;;20.47;100.00;96325.72;5052841;27;105173;-71
2022/08/01 02:40:02;;;;;;;2.77;2.20;;;;;;;20.51;100.00;96329.41;5051704;27;105974;-71
2022/08/01 02:42:32;;;;;;;2.73;2.47;;;;;;;20.44;100.00;96329.84;5054044;27;101853;-71
2022/08/01 02:45:03;;;;;;;2.30;2.10;;;;;;;20.50;100.00;96330.50;5052450;27;105233;-71
2022/08/01 02:47:31;;;;;;;2.93;2.40;;;;;;;20.43;100.00;96339.06;5052081;27;105622;-71
2022/08/01 02:50:01;;;;;;;2.60;2.40;;;;;;;20.43;100.00;96341.00;5052569;27;101929;-71
2022/08/01 02:52:30;;;;;;;3.27;2.47;;;;;;;20.39;100.00;96338.09;5054046;27;103999;-71
2022/08/01 02:54:59;;;;;;;2.60;2.40;;;;;;;20.40;100.00;96341.59;5056414;27;102557;-71
2022/08/01 02:57:28;;;;;;;3.87;2.73;;;;;;;20.41;100.00;96341.31;5053689;27;102518;-70
2022/08/01 02:59:59;;;;;;;2.50;2.20;;;;;;;20.41;100.00;96341.31;5053234;27;102692;-71
2022/08/01 03:02:30;;;;;;;2.50;2.40;;;;;;;20.45;100.00;96346.88;5053969;27;101750;-70
2022/08/01 03:04:59;;;;;;;3.33;2.20;;;;;;;20.45;100.00;96349.56;5052396;27;104063;-70
2022/08/01 03:07:29;;;;;;;2.10;2.00;;;;;;;20.43;100.00;96349.88;5051571;27;105452;-71
2022/08/01 03:09:58;;;;;;;2.43;2.23;;;;;;;20.44;100.00;96347.97;5052389;27;102434;-70
2022/08/01 03:12:30;;;;;;;2.60;2.47;;;;;;;20.43;100.00;96346.41;5053453;27;102461;-70
2022/08/01 03:15:00;;;;;;;3.83;2.27;;;;;;;20.45;100.00;96350.38;5053081;27;101746;-70
2022/08/01 03:17:30;;;;;;;2.33;2.13;;;;;;;20.42;100.00;96350.19;5057205;27;101803;-70
2022/08/01 03:20:00;;;;;;;2.60;2.40;;;;;;;20.46;100.00;96353.84;5051303;27;106051;-71
2022/08/01 03:22:30;;;;;;;2.37;2.17;;;;;;;20.49;100.00;96355.94;5053749;27;101694;-71
2022/08/01 03:25:00;;;;;;;2.30;2.20;;;;;;;20.59;100.00;96356.44;5053769;27;102239;-71
2022/08/01 03:27:27;;;;;;;2.27;2.10;;;;;;;20.61;100.00;96354.22;5051474;27;105588;-71
2022/08/01 03:29:57;;;;;;;2.50;2.30;;;;;;;20.52;100.00;96355.31;5053024;27;101734;-71
2022/08/01 03:32:26;;;;;;;3.30;2.37;;;;;;;20.46;100.00;96356.56;5051998;27;106180;-71
2022/08/01 03:34:54;;;;;;;2.53;2.33;;;;;;;20.43;100.00;96360.69;5051365;27;105576;-71
2022/08/01 03:37:26;;;;;;;2.30;2.10;;;;;;;20.44;100.00;96358.78;5053325;27;101749;-71
2022/08/01 03:39:59;;;;;;;2.60;2.40;;;;;;;20.38;100.00;96365.44;5054307;27;103834;-70
2022/08/01 03:42:34;;;;;;;3.07;2.53;;;;;;;20.36;100.00;96363.03;5051438;27;101910;-71
2022/08/01 03:45:06;;;;;;;2.20;2.10;;;;;;;20.32;100.00;96356.66;5051297;27;105246;-71
2022/08/01 03:47:36;;;;;;;2.50;2.30;;;;;;;20.26;100.00;96366.03;5052705;27;102569;-70
2022/08/01 03:50:07;;;;;;;2.53;2.37;;;;;;;20.24;100.00;96370.13;5051641;27;102047;-71
2022/08/01 03:52:39;;;;;;;3.90;2.50;;;;;;;20.22;100.00;96366.97;5052884;27;102925;-71
2022/08/01 03:55:09;;;;;;;3.00;2.23;;;;;;;20.28;100.00;96366.50;5051014;27;106719;-71
2022/08/01 03:57:37;;;;;;;2.20;2.10;;;;;;;20.29;100.00;96372.72;5051341;27;101887;-71
2022/08/01 04:00:08;;;;;;;2.40;2.30;;;;;;;20.25;100.00;96374.44;5055529;27;102854;-71
2022/08/01 04:02:40;;;;;;;2.67;2.40;;;;;;;20.21;100.00;96374.25;5049831;27;102015;-70
2022/08/01 04:05:10;;;;;;;3.77;2.20;;;;;;;20.26;100.00;96378.72;5051977;27;102302;-71
2022/08/01 04:07:38;;;;;;;2.60;2.40;;;;;;;20.25;100.00;96371.72;5052176;27;102551;-71
2022/08/01 04:10:06;;;;;;;4.33;2.40;;;;;;;20.21;100.00;96376.19;5052681;27;101990;-71
2022/08/01 04:12:35;;;;;;;3.00;2.50;;;;;;;20.15;100.00;96372.00;5052589;27;103053;-71
2022/08/01 04:15:03;;;;;;;2.83;2.53;;;;;;;20.11;100.00;96371.81;5050661;27;106017;-71
2022/08/01 04:17:31;;;;;;;2.80;2.60;;;;;;;20.01;100.00;96376.69;5052413;27;101699;-71
2022/08/01 04:19:58;;;;;;;2.23;2.13;;;;;;;20.00;100.00;96386.66;5051177;27;105203;-71
2022/08/01 04:22:27;;;;;;;3.97;2.40;;;;;;;19.96;100.00;96382.22;5055193;27;103106;-70
2022/08/01 04:24:58;;;;;;;3.60;2.60;;;;;;;19.96;100.00;96384.91;5034116;27;104591;-71
2022/08/01 04:27:29;;;;;;;2.73;2.30;;;;;;;19.97;100.00;96391.91;5051857;27;103131;-70
2022/08/01 04:29:59;;;;;;;2.40;2.30;;;;;;;19.97;100.00;96389.19;5052587;27;101831;-70
2022/08/01 04:32:28;;;;;;;2.50;2.30;;;;;;;20.12;100.00;96391.53;5051117;27;105852;-70
2022/08/01 04:34:58;;;;;;;2.80;2.60;;;;;;;20.20;100.00;96394.28;5050284;27;104732;-71
2022/08/01 04:37:28;;;;;;;3.43;2.50;;;;;;;20.15;100.00;96396.31;5050868;27;102039;-70
2022/08/01 04:39:57;;;;;;;2.80;2.60;;;;;;;20.13;100.00;96398.53;5050312;27;104996;-70
2022/08/01 04:42:25;;;;;;;2.80;2.60;;;;;;;20.13;100.00;96401.22;5050119;27;105694;-70
2022/08/01 04:44:52;;;;;;;2.80;2.60;;;;;;;20.04;100.00;96403.03;5054288;27;101899;-70
2022/08/01 04:47:20;;;;;;;3.00;2.70;;;;;;;19.92;100.00;96410.91;5051302;27;102890;-70
2022/08/01 04:49:48;;;;;;;4.23;2.90;;;;;;;19.97;100.00;96402.69;5033887;27;102058;-70
2022/08/01 04:52:17;;;;;;;3.40;2.83;;;;;;;19.94;100.00;96408.72;5050681;27;105252;-70
2022/08/01 04:55:01;;;;;;;3.03;2.73;;;;;;;19.84;100.00;96408.97;5049428;27;104393;-70
2022/08/01 04:57:28;;;;;;;5.23;3.00;;;;;;;19.91;100.00;96415.53;4972442;28;101885;-70
2022/08/01 04:59:57;;;;;;;2.80;2.60;;;;;;;19.91;100.00;96422.81;4972175;28;105815;-70
2022/08/01 05:02:27;;;;;;;4.23;2.90;;;;;;;20.02;100.00;96416.06;4988447;28;104622;-70
2022/08/01 05:04:56;;;;;;;2.93;2.60;;;;;;;19.96;100.00;96422.69;4971927;28;101833;-70
2022/08/01 05:07:23;;;;;;;4.33;2.73;;;;;;;19.97;100.00;96430.50;4992118;28;102013;-76
2022/08/01 05:09:52;;;;;;;5.37;3.17;;;;;;;19.97;100.00;96429.69;4988852;28;101987;-76
2022/08/01 05:12:19;;;;;;;6.10;2.87;;;;;;;20.04;100.00;96427.34;4972260;28;105619;-71
2022/08/01 05:14:46;;;;;;;3.83;2.83;;;;;;;19.95;100.00;96432.69;4971396;28;105452;-70
2022/08/01 05:17:13;;;;;;;3.70;2.60;;;;;;;20.05;100.00;96423.56;4972433;28;102046;-70
2022/08/01 05:19:42;;;;;;;3.67;3.00;;;;;;;19.83;100.00;96424.34;4972161;28;105368;-70
2022/08/01 05:22:11;;;;;;;4.23;3.00;;;;;;;19.82;100.00;96427.34;4971554;28;105672;-70
2022/08/01 05:24:40;;;;;;;4.63;3.20;;;;;;;19.90;100.00;96424.72;4971594;28;102287;-70
2022/08/01 05:27:09;;;;;;;5.87;2.97;;;;;;;19.95;100.00;96424.59;4971825;28;105143;-70
2022/08/01 05:29:36;;;;;;;3.10;2.90;;;;;;;20.08;100.00;96431.06;4974651;28;105581;-74
2022/08/01 05:32:03;;;;;;;3.47;2.80;;;;;;;20.15;100.00;96426.81;4971549;28;104780;-63
2022/08/01 05:34:31;;;;;;;3.10;2.80;;;;;;;20.39;100.00;96429.94;5000790;27;105516;-61
2022/08/01 05:36:58;;;;;;;3.63;2.77;;;;;;;20.18;100.00;96430.78;5049408;27;101927;-61
2022/08/01 05:39:25;;;;;;;4.60;3.00;;;;;;;20.37;100.00;96434.88;5048884;27;105105;-61
2022/08/01 05:41:53;;;;;;;5.23;2.90;;;;;;;20.05;100.00;96435.13;5048859;27;105640;-61
2022/08/01 05:44:21;;;;;;;4.00;3.00;;;;;;;20.13;100.00;96444.44;5049483;27;102040;-61
2022/08/01 05:46:49;;;;;;;3.40;2.70;;;;;;;20.34;100.00;96440.09;5051214;27;102346;-61
2022/08/01 05:49:16;;;;;;;4.77;3.10;;;;;;;20.52;100.00;96441.75;5032091;27;106811;-61
2022/08/01 05:51:42;;;;;;;5.83;3.20;;;;;;;20.67;100.00;96438.66;5052997;27;102070;-61
2022/08/01 05:54:09;;;;;;;4.27;2.97;;;;;;;21.01;100.00;96439.59;5048883;27;105420;-61
2022/08/01 05:56:37;;;;;;;3.70;2.80;;;;;;;21.22;100.00;96439.78;5051204;27;101823;-61
2022/08/01 05:59:04;;;;;;;4.33;2.73;;;;;;;21.34;100.00;96443.47;5051001;27;102422;-61
2022/08/01 06:01:33;;;;;;;4.83;3.03;;;;;;;21.36;100.00;96443.94;5050197;27;103175;-61
2022/08/01 06:04:00;;;;;;;5.23;3.33;;;;;;;21.31;100.00;96448.72;5050239;27;101934;-61
2022/08/01 06:06:27;;;;;;;2.83;2.63;;;;;;;21.63;100.00;96450.97;5050378;27;102470;-61
2022/08/01 06:08:54;;;;;;;4.40;2.47;;;;;;;21.49;100.00;96442.19;5049962;27;104561;-61
2022/08/01 06:11:21;;;;;;;3.07;2.73;;;;;;;21.58;100.00;96460.00;5052757;27;102021;-61
2022/08/01 06:13:49;;;;;;;6.33;2.90;;;;;;;21.67;100.00;96447.28;5049989;27;102708;-61
2022/08/01 06:16:16;;;;;;;2.70;2.50;;;;;;;21.90;100.00;96447.97;5050425;27;101719;-61
2022/08/01 06:18:44;;;;;;;5.57;2.93;;;;;;;21.58;100.00;96449.19;5050564;27;102669;-61
2022/08/01 06:21:11;;;;;;;3.83;2.30;;;;;;;21.67;100.00;96454.59;5048652;27;104331;-61
2022/08/01 06:23:41;;;;;;;3.50;2.57;;;;;;;21.87;100.00;96454.00;5048307;27;101995;-63
2022/08/01 06:26:08;;;;;;;3.77;2.23;;;;;;;22.03;100.00;96460.50;5050349;27;102926;-63
2022/08/01 06:28:35;;;;;;;2.70;2.50;;;;;;;22.14;100.00;96464.47;5048729;27;105561;-63
2022/08/01 06:31:02;;;;;;;3.13;2.43;;;;;;;22.20;100.00;96458.56;5049211;27;101936;-63
2022/08/01 06:33:34;;;;;;;2.50;2.37;;;;;;;22.46;100.00;96464.72;5051074;27;105554;-62
2022/08/01 06:36:04;;;;;;;2.53;2.33;;;;;;;22.64;100.00;96468.19;5044044;27;101798;-63
2022/08/01 06:38:32;;;;;;;2.90;2.27;;;;;;;22.97;100.00;96469.97;5048812;27;103656;-63
2022/08/01 06:40:59;;;;;;;2.50;2.30;;;;;;;22.98;100.00;96470.75;5047169;27;105296;-63
2022/08/01 06:43:33;;;;;;;2.60;2.40;;;;;;;22.98;100.00;96470.75;5049090;27;102024;-63
2022/08/01 06:46:00;;;;;;;2.13;2.03;;;;;;;22.90;100.00;96460.75;5028701;28;105481;-63
2022/08/01 06:48:27;;;;;;;2.63;2.20;;;;;;;23.21;100.00;96463.97;5028125;28;104064;-63
2022/08/01 06:51:07;;;;;;;3.70;2.30;;;;;;;23.25;100.00;96465.69;5028810;28;102290;-63
2022/08/01 06:53:37;;;;;;;2.57;2.00;;;;;;;23.48;100.00;96466.19;5028612;28;104886;-62
2022/08/01 06:56:08;;;;;;;2.37;1.90;;;;;;;23.48;100.00;96466.19;5033355;27;102533;-63
2022/08/01 06:58:36;;;;;;;2.40;2.20;;;;;;;23.73;100.00;96454.31;5028987;28;104956;-63
2022/08/01 07:01:05;;;;;;;3.53;2.30;;;;;;;23.90;100.00;96460.44;5045655;27;103159;-63
2022/08/01 07:03:35;;;;;;;2.30;2.10;;;;;;;23.88;100.00;96461.88;5048719;27;101937;-63
2022/08/01 07:06:06;;;;;;;2.17;1.97;;;;;;;24.15;100.00;96461.34;5048865;27;104805;-63
2022/08/01 07:08:33;;;;;;;2.40;2.17;;;;;;;24.00;100.00;96457.31;5031405;27;105577;-63
2022/08/01 07:11:03;;;;;;;3.13;2.27;;;;;;;24.07;100.00;96457.56;5050100;27;101833;-63
2022/08/01 07:13:32;;;;;;;2.23;2.03;;;;;;;24.09;100.00;96468.88;5048626;27;104849;-63
2022/08/01 07:15:59;;;;;;;2.40;2.30;;;;;;;23.68;100.00;96451.81;5049728;27;101755;-63
2022/08/01 07:18:27;;;;;;;2.10;1.80;;;;;;;24.03;100.00;96453.16;5049521;27;102127;-63
2022/08/01 07:20:54;;;;;;;3.53;2.17;;;;;;;24.10;100.00;96458.84;5031406;28;105417;-63
2022/08/01 07:23:31;;;;;;;3.33;1.93;;;;;;;24.58;100.00;96453.56;5031817;28;102002;-63
2022/08/01 07:25:58;;;;;;;2.90;1.83;;;;;;;24.19;100.00;96457.63;5031710;28;105460;-63
2022/08/01 07:28:27;;;;;;;3.70;2.00;;;;;;;24.25;100.00;96463.66;5031185;28;105297;-63
2022/08/01 07:30:54;;;;;;;2.20;2.00;;;;;;;24.09;100.00;96465.41;5031567;28;101968;-63
2022/08/01 07:33:49;;;;;;;1.97;1.87;;;;;;;23.97;100.00;96465.34;5031731;28;104690;-64
2022/08/01 07:36:16;;;;;;;2.13;1.90;;;;;;;24.02;100.00;96460.50;4953081;28;105541;-63
2022/08/01 07:38:43;;;;;;;2.00;1.90;;;;;;;24.03;100.00;96464.03;4954191;28;102466;-63
2022/08/01 07:41:10;;;;;;;2.60;2.40;;;;;;;23.95;100.00;96456.72;4956729;28;105810;-63
2022/08/01 07:44:05;;;;;;;2.50;2.13;;;;;;;24.09;100.00;96451.81;4954163;28;102131;-63
2022/08/01 07:46:32;;;;;;;2.90;2.17;;;;;;;24.26;100.00;96446.19;4953987;28;105112;-63
2022/08/01 07:48:59;;;;;;;2.10;1.90;;;;;;;24.28;100.00;96447.47;4972993;28;106128;-63
2022/08/01 07:51:26;;;;;;;2.23;2.00;;;;;;;24.31;100.00;96454.16;4973918;28;102070;-63
2022/08/01 07:54:07;;;;;;;2.10;2.00;;;;;;;24.32;100.00;96440.22;4973376;28;105206;-63
2022/08/01 07:56:40;;;;;;;2.20;2.00;;;;;;;24.19;100.00;96445.97;4973005;28;105632;-63
2022/08/01 07:59:09;;;;;;;2.70;2.10;;;;;;;24.08;100.00;96451.00;4990487;28;101809;-63
2022/08/01 08:01:36;;;;;;;2.93;2.20;;;;;;;24.62;100.00;96447.09;4973344;28;105259;-63
2022/08/01 08:04:11;;;;;;;2.33;2.20;;;;;;;24.50;100.00;96440.81;4976160;28;102012;-62
2022/08/01 08:06:38;;;;;;;2.60;2.40;;;;;;;24.49;100.00;96450.09;4990026;28;102441;-63
2022/08/01 08:09:05;;;;;;;2.07;1.97;;;;;;;24.93;100.00;96449.28;4966813;28;105500;-63
2022/08/01 08:11:33;;;;;;;3.93;1.97;;;;;;;24.88;100.00;96449.50;4953793;28;102686;-64
2022/08/01 08:14:13;;;;;;;2.30;2.07;;;;;;;25.09;100.00;96452.91;5006547;28;103743;-64
2022/08/01 08:16:40;;;;;;;3.03;2.40;;;;;;;24.83;100.00;96452.44;5030338;28;106023;-64
2022/08/01 08:19:07;;;;;;;2.40;2.17;;;;;;;24.82;98.71;96456.28;5032194;28;103136;-65
2022/08/01 08:21:34;;;;;;;2.43;2.23;;;;;;;24.80;100.00;96456.63;5030964;28;103829;-64
2022/08/01 08:24:23;;;;;;;2.20;2.10;;;;;;;25.02;100.00;96450.75;5033784;28;105147;-64
2022/08/01 08:26:54;;;;;;;2.77;2.27;;;;;;;24.82;100.00;96450.84;5030885;28;105704;-64
2022/08/01 08:29:24;;;;;;;2.40;2.20;;;;;;;25.17;100.00;96449.28;5031007;27;103234;-64
2022/08/01 08:31:52;;;;;;;2.50;2.00;;;;;;;25.01;100.00;96451.09;5029794;28;101938;-63
2022/08/01 08:34:49;;;;;;;2.93;2.07;;;;;;;24.78;97.18;96447.22;5030662;28;105117;-64
2022/08/01 08:37:17;;;;;;;2.97;2.20;;;;;;;25.07;94.48;96457.91;5031622;27;102739;-69
2022/08/01 08:39:44;;;;;;;2.90;1.93;;;;;;;25.46;95.53;96449.03;5030182;28;102047;-63
2022/08/01 08:42:12;;;;;;;2.30;2.10;;;;;;;25.50;88.63;96452.69;5030726;28;104878;-64
2022/08/01 08:44:43;;;;;;;2.40;2.17;;;;;;;25.97;90.50;96442.78;5013131;28;106230;-63
2022/08/01 08:47:13;;;;;;;2.70;2.30;;;;;;;26.69;87.65;96451.41;5033974;28;102101;-63
2022/08/01 08:49:43;;;;;;;2.83;2.60;;;;;;;25.56;85.74;96446.63;5030119;28;105278;-63
2022/08/01 08:52:11;;;;;;;2.00;1.90;;;;;;;25.41;88.66;96450.09;5031953;27;101920;-63
2022/08/01 08:54:48;;;;;;;2.40;2.20;;;;;;;25.88;87.98;96447.56;5031947;28;102314;-63
2022/08/01 08:57:16;;;;;;;2.20;2.10;;;;;;;26.16;91.56;96448.41;5036058;27;105600;-63
2022/08/01 08:59:46;;;;;;;2.37;2.13;;;;;;;25.96;83.45;96441.22;5031854;27;101987;-63
2022/08/01 09:02:13;;;;;;;2.53;2.20;;;;;;;26.57;84.30;96437.06;5030254;28;105561;-63
2022/08/01 09:05:11;;;;;;;2.87;2.57;;;;;;;26.11;81.09;96438.53;5030929;28;102569;-63
2022/08/01 09:07:38;;;;;;;2.30;2.10;;;;;;;26.52;76.93;96440.00;5049398;27;102021;-64
2022/08/01 09:10:07;;;;;;;2.50;2.20;;;;;;;26.36;78.41;96436.47;5054697;27;102319;-63
2022/08/01 09:12:34;;;;;;;4.10;2.30;;;;;;;26.25;80.90;96440.84;5050360;27;101897;-63
2022/08/01 09:15:04;;;;;;;2.10;1.90;;;;;;;26.81;80.03;96434.94;5051700;27;101669;-63
2022/08/01 09:17:41;;;;;;;2.10;2.00;;;;;;;26.89;67.86;96436.72;5049846;27;104682;-63
2022/08/01 09:20:09;;;;;;;4.17;2.50;;;;;;;26.78;73.03;96437.59;5051799;27;101677;-63
2022/08/01 09:22:37;;;;;;;2.27;2.17;;;;;;;26.63;73.27;96436.44;5051801;27;102495;-63
2022/08/01 09:25:47;;;;;;;2.20;2.00;;;;;;;26.43;72.43;96433.94;5034150;27;102528;-63
2022/08/01 09:28:14;;;;;;;2.00;1.90;;;;;;;27.03;65.82;96428.84;5033825;27;101831;-63
2022/08/01 09:30:43;;;;;;;2.80;2.00;;;;;;;27.31;67.51;96434.22;5050565;27;104093;-64
2022/08/01 09:33:10;;;;;;;3.23;2.10;;;;;;;27.90;64.81;96423.84;5044489;27;106402;-63
2022/08/01 09:35:41;;;;;;;2.30;2.20;;;;;;;26.92;68.29;96433.28;5031393;27;102456;-62
2022/08/01 09:38:19;;;;;;;2.10;2.00;;;;;;;26.69;70.22;96434.25;5030710;27;103568;-63
2022/08/01 09:40:52;;;;;;;1.83;1.73;;;;;;;27.14;68.25;96435.34;5030305;27;102009;-63
2022/08/01 09:43:20;;;;;;;4.10;1.93;;;;;;;27.30;68.09;96433.41;5030654;27;102531;-63
2022/08/01 09:45:48;;;;;;;2.20;2.00;;;;;;;27.26;65.73;96439.97;5030185;28;102607;-63
2022/08/01 09:48:16;;;;;;;2.70;2.20;;;;;;;27.44;61.22;96433.75;5029380;28;102168;-63
2022/08/01 09:50:44;;;;;;;2.00;1.90;;;;;;;27.97;64.38;96426.72;5039434;27;105651;-63
2022/08/01 09:53:14;;;;;;;2.00;1.90;;;;;;;28.04;59.57;96429.56;5029810;28;101777;-63
2022/08/01 09:55:42;;;;;;;3.20;2.07;;;;;;;28.24;59.46;96429.22;5034173;28;101828;-62
2022/08/01 09:58:49;;;;;;;2.10;1.97;;;;;;;28.45;56.49;96426.88;5030049;28;102578;-62
2022/08/01 10:01:21;;;;;;;2.10;1.87;;;;;;;28.03;57.79;96412.41;5030556;28;101906;-62
2022/08/01 10:04:25;;;;;;;2.20;1.90;;;;;;;28.54;53.32;96415.69;5030824;28;102894;-62
2022/08/01 10:06:53;;;;;;;1.60;1.50;;;;;;;28.41;52.43;96406.91;5011964;28;106084;-62
2022/08/01 10:09:29;;;;;;;2.27;1.93;;;;;;;27.86;54.63;96404.63;5029211;28;101864;-63
2022/08/01 10:11:58;;;;;;;1.67;1.57;;;;;;;27.45;57.42;96418.13;5029255;28;104135;-62
2022/08/01 10:14:40;;;;;;;1.97;1.87;;;;;;;27.77;60.45;96400.47;5040874;27;105622;-62
2022/08/01 10:17:12;;;;;;;3.30;1.80;;;;;;;27.89;55.32;96405.84;5032683;28;102179;-62
2022/08/01 10:19:43;;;;;;;3.03;1.70;;;;;;;28.48;55.55;96404.28;5028716;27;105930;-62
2022/08/01 10:22:13;;;;;;;1.53;1.43;;;;;;;28.36;53.12;96398.97;5050823;27;101701;-62
2022/08/01 10:24:48;;;;;;;4.10;1.27;;;;;;;27.76;51.27;96396.19;5047059;27;103329;-62
2022/08/01 10:27:18;;;;;;;1.53;1.43;;;;;;;27.98;52.98;96393.53;5028360;28;104381;-62
2022/08/01 10:29:51;;;;;;;1.77;1.37;;;;;;;28.14;51.13;96396.19;5030440;28;101688;-62
2022/08/01 10:32:20;;;;;;;3.37;1.50;;;;;;;27.94;50.99;96397.34;5028972;28;104832;-63
2022/08/01 10:34:51;;;;;;;1.20;1.10;;;;;;;27.84;51.61;96390.53;5046320;27;105906;-63
2022/08/01 10:37:18;;;;;;;1.53;1.43;;;;;;;27.78;49.89;96388.44;5048865;27;101890;-63
2022/08/01 10:39:46;;;;;;;1.33;1.20;;;;;;;27.66;49.00;96407.66;5052490;27;103252;-63
2022/08/01 10:42:13;;;;;;;1.30;1.20;;;;;;;27.84;49.70;96393.25;5050419;27;101910;-63
2022/08/01 10:44:46;;;;;;;4.37;1.40;;;;;;;28.20;47.09;96392.78;5048491;27;105349;-63
2022/08/01 10:47:15;;;;;;;1.53;1.37;;;;;;;28.12;46.91;96393.81;5048474;27;103043;-63
2022/08/01 10:49:49;;;;;;;1.17;1.17;;;;;;;27.98;47.96;96390.00;5041153;27;102414;-63
2022/08/01 10:52:16;;;;;;;1.10;1.10;;;;;;;28.35;48.21;96383.69;5028488;28;103514;-63
2022/08/01 10:55:06;;;;;;;2.07;1.87;;;;;;;29.12;46.41;96370.53;5030643;27;105386;-63
2022/08/01 10:57:49;;;;;;;1.30;1.30;;;;;;;28.36;45.65;96381.75;5037599;27;101937;-63
2022/08/01 11:00:18;;;;;;;2.60;1.40;;;;;;;28.13;47.33;96384.47;5032076;28;105781;-62
2022/08/01 11:03:00;;;;;;;1.20;1.17;;;;;;;28.16;48.17;96385.69;5036378;27;106270;-63
2022/08/01 11:05:32;;;;;;;2.13;1.00;;;;;;;28.45;45.01;96371.38;5038216;27;105256;-63
2022/08/01 11:08:03;;;;;;;1.17;1.10;;;;;;;28.36;44.97;96371.59;5031433;28;105514;-63
2022/08/01 11:10:37;;;;;;;1.40;1.30;;;;;;;28.65;46.10;96368.22;5031861;27;101908;-63
2022/08/01 11:14:00;;;;;;;1.53;1.37;;;;;;;28.52;43.88;96360.56;5033686;28;102276;-63
2022/08/01 11:16:28;;;;;;;1.30;1.20;;;;;;;28.23;45.33;96361.97;5031355;28;104309;-63
2022/08/01 11:18:55;;;;;;;1.20;1.10;;;;;;;28.60;44.95;96365.00;5034037;27;103071;-63
2022/08/01 11:22:00;;;;;;;1.13;1.10;;;;;;;28.83;44.05;96357.56;5052098;27;105504;-63
2022/08/01 11:25:01;;;;;;;1.50;0.87;;;;;;;28.70;41.27;96364.38;5052963;27;102548;-62
2022/08/01 11:30:54;;;;;;;0.77;0.77;;;;;;;29.18;41.61;96363.56;5051500;27;105470;-63
2022/08/01 11:33:56;;;;;;;1.10;1.00;;;;;;;29.11;40.88;96358.00;5053199;27;101928;-63
2022/08/01 11:36:25;;;;;;;1.33;1.00;;;;;;;29.83;42.21;96351.16;5053658;27;102375;-62
2022/08/01 11:39:17;;;;;;;1.30;1.20;;;;;;;29.78;41.69;96346.81;5051395;27;105450;-62
2022/08/01 11:41:45;;;;;;;2.37;1.20;;;;;;;30.00;41.85;96345.06;5051914;27;102085;-63